createdAt,value
2022-11-15T00:00:36.578Z,97735.50
2022-11-15T00:03:05.500Z,97738.31
2022-11-15T00:05:39.194Z,97730.28
2022-11-15T00:08:09.299Z,97720.06
2022-11-15T00:10:40.710Z,97732.44
2022-11-15T00:13:14.855Z,97727.22
2022-11-15T00:15:44.689Z,97725.63
2022-11-15T00:18:16.953Z,97724.84
2022-11-15T00:20:46.438Z,97723.81
2022-11-15T00:23:17.634Z,97718.81
2022-11-15T00:25:48.935Z,97725.00
2022-11-15T00:28:19.490Z,97716.81
2022-11-15T00:30:48.054Z,97715.81
2022-11-15T00:33:17.390Z,97714.84
2022-11-15T00:35:47.521Z,97719.25
2022-11-15T00:38:17.422Z,97716.44
2022-11-15T00:40:48.815Z,97718.06
2022-11-15T00:43:17.607Z,97708.44
2022-11-15T00:45:47.451Z,97716.25
2022-11-15T00:48:16.783Z,97718.88
2022-11-15T00:50:46.958Z,97713.44
2022-11-15T00:53:15.966Z,97713.09
2022-11-15T00:55:45.509Z,97713.72
2022-11-15T00:58:15.434Z,97708.31
2022-11-15T01:00:44.947Z,97703.72
2022-11-15T01:03:14.991Z,97709.75
2022-11-15T01:05:44.083Z,97710.19
2022-11-15T01:08:16.474Z,97711.66
2022-11-15T01:10:45.718Z,97703.06
2022-11-15T01:13:16.687Z,97704.31
2022-11-15T01:15:46.813Z,97705.78
2022-11-15T01:18:16.546Z,97704.38
2022-11-15T01:20:46.116Z,97700.22
2022-11-15T01:23:16.504Z,97703.66
2022-11-15T01:25:46.034Z,97707.28
2022-11-15T01:28:16.943Z,97704.94
2022-11-15T01:30:47.038Z,97709.78
2022-11-15T01:33:17.092Z,97697.75
2022-11-15T01:35:46.690Z,97695.56
2022-11-15T01:38:15.723Z,97693.38
2022-11-15T01:40:45.707Z,97689.41
2022-11-15T01:43:29.791Z,97684.41
2022-11-15T01:46:06.500Z,97692.66
2022-11-15T01:48:38.656Z,97695.09
2022-11-15T01:51:13.956Z,97696.72
2022-11-15T01:53:51.053Z,97704.75
2022-11-15T01:56:25.397Z,97694.16
2022-11-15T01:58:59.082Z,97705.00
2022-11-15T02:01:31.065Z,97695.97
2022-11-15T02:04:06.230Z,97693.38
2022-11-15T02:06:37.121Z,97689.56
2022-11-15T02:09:06.852Z,97690.78
2022-11-15T02:11:37.468Z,97688.44
2022-11-15T02:14:10.966Z,97689.88
2022-11-15T02:16:56.676Z,97688.66
2022-11-15T02:20:33.594Z,97679.66
2022-11-15T02:23:58.962Z,97680.06
2022-11-15T02:27:17.409Z,97668.00
2022-11-15T02:30:26.870Z,97675.63
2022-11-15T02:33:04.157Z,97672.84
2022-11-15T02:35:46.783Z,97675.25
2022-11-15T02:38:25.069Z,97668.19
2022-11-15T02:41:01.869Z,97665.59
2022-11-15T02:43:57.291Z,97664.59
2022-11-15T02:46:55.739Z,97660.00
2022-11-15T02:49:28.910Z,97652.34
2022-11-15T02:51:58.534Z,97656.75
2022-11-15T02:54:33.456Z,97655.13
2022-11-15T02:57:07.869Z,97653.53
2022-11-15T03:00:07.475Z,97655.53
2022-11-15T03:03:19.988Z,97650.69
2022-11-15T03:06:00.113Z,97650.69
2022-11-15T03:08:39.745Z,97651.91
2022-11-15T03:11:15.948Z,97644.25
2022-11-15T03:13:59.057Z,97644.25
2022-11-15T03:16:36.700Z,97642.22
2022-11-15T03:19:17.277Z,97639.81
2022-11-15T03:21:48.661Z,97645.03
2022-11-15T03:24:25.829Z,97638.81
2022-11-15T03:26:59.533Z,97632.56
2022-11-15T03:29:35.413Z,97637.00
2022-11-15T03:32:14.026Z,97634.19
2022-11-15T03:34:50.320Z,97639.41
2022-11-15T03:37:26.675Z,97634.19
2022-11-15T03:39:56.277Z,97628.97
2022-11-15T03:42:34.311Z,97626.56
2022-11-15T03:45:13.159Z,97627.97
2022-11-15T03:47:50.584Z,97625.34
2022-11-15T03:50:24.986Z,97622.09
2022-11-15T03:52:57.553Z,97624.13
2022-11-15T03:55:27.748Z,97627.56
2022-11-15T03:58:02.578Z,97632.97
2022-11-15T04:00:32.207Z,97629.50
2022-11-15T04:03:01.288Z,97622.09
2022-11-15T04:05:31.493Z,97620.53
2022-11-15T04:08:01.705Z,97617.50
2022-11-15T04:10:31.163Z,97619.31
2022-11-15T04:12:59.733Z,97618.72
2022-11-15T04:15:29.799Z,97616.28
2022-11-15T04:18:00.432Z,97615.66
2022-11-15T04:20:50.884Z,97612.41
2022-11-15T04:23:39.729Z,97606.78
2022-11-15T04:26:13.780Z,97603.97
2022-11-15T04:28:57.306Z,97604.13
2022-11-15T04:31:26.932Z,97592.47
2022-11-15T04:33:56.834Z,97593.06
2022-11-15T04:36:46.137Z,97596.63
2022-11-15T04:39:16.248Z,97599.44
2022-11-15T04:41:46.060Z,97609.44
2022-11-15T04:44:19.780Z,97600.19
2022-11-15T04:46:49.731Z,97600.38
2022-11-15T04:49:19.880Z,97593.75
2022-11-15T04:51:50.573Z,97605.56
2022-11-15T04:54:19.768Z,97596.94
2022-11-15T04:56:48.875Z,97596.94
2022-11-15T04:59:19.566Z,97598.75
2022-11-15T05:01:48.815Z,97592.09
2022-11-15T05:04:20.658Z,97597.31
2022-11-15T05:06:54.100Z,97602.53
2022-11-15T05:09:23.969Z,97600.94
2022-11-15T05:11:53.617Z,97604.34
2022-11-15T05:14:23.305Z,97598.34
2022-11-15T05:16:52.966Z,97604.16
2022-11-15T05:19:23.230Z,97597.94
2022-11-15T05:21:54.983Z,97600.56
2022-11-15T05:24:24.864Z,97590.94
2022-11-15T05:26:55.425Z,97591.72
2022-11-15T05:29:25.535Z,97599.19
2022-11-15T05:31:54.924Z,97592.13
2022-11-15T05:34:26.692Z,97598.16
2022-11-15T05:36:58.040Z,97598.78
2022-11-15T05:39:27.950Z,97597.78
2022-11-15T05:42:04.310Z,97603.00
2022-11-15T05:44:36.812Z,97601.00
2022-11-15T05:47:10.754Z,97601.00
2022-11-15T05:49:44.894Z,97596.22
2022-11-15T05:52:22.544Z,97602.03
2022-11-15T05:54:53.382Z,97593.00
2022-11-15T05:57:24.088Z,97603.09
2022-11-15T05:59:53.924Z,97604.69
2022-11-15T06:02:23.577Z,97598.47
2022-11-15T06:04:52.912Z,97600.91
2022-11-15T06:07:23.976Z,97604.28
2022-11-15T06:09:53.648Z,97604.28
2022-11-15T06:12:23.374Z,97601.50
2022-11-15T06:14:52.454Z,97593.66
2022-11-15T06:17:22.805Z,97593.47
2022-11-15T06:19:53.460Z,97596.88
2022-11-15T06:22:24.244Z,97597.91
2022-11-15T06:24:54.301Z,97602.31
2022-11-15T06:27:22.793Z,97601.31
2022-11-15T06:29:52.476Z,97597.09
2022-11-15T06:32:21.953Z,97608.53
2022-11-15T06:34:51.708Z,97612.75
2022-11-15T06:37:23.205Z,97610.53
2022-11-15T06:39:52.644Z,97620.34
2022-11-15T06:42:22.292Z,97610.91
2022-11-15T06:44:51.877Z,97615.13
2022-11-15T06:47:21.691Z,97615.13
2022-11-15T06:49:51.377Z,97618.75
2022-11-15T06:52:20.712Z,97616.94
2022-11-15T06:54:51.776Z,97606.69
2022-11-15T06:57:21.367Z,97610.91
2022-11-15T06:59:51.419Z,97613.53
2022-11-15T07:02:20.516Z,97620.34
2022-11-15T07:04:50.558Z,97617.13
2022-11-15T07:07:20.817Z,97629.38
2022-11-15T07:09:50.754Z,97626.38
2022-11-15T07:12:20.793Z,97621.53
2022-11-15T07:14:49.659Z,97623.97
2022-11-15T07:17:19.777Z,97628.00
2022-11-15T07:19:50.012Z,97627.19
2022-11-15T07:22:20.259Z,97621.97
2022-11-15T07:24:50.232Z,97628.81
2022-11-15T07:27:20.223Z,97627.78
2022-11-15T07:29:50.176Z,97619.97
2022-11-15T07:32:19.381Z,97618.97
2022-11-15T07:34:49.601Z,97623.19
2022-11-15T07:37:19.235Z,97627.44
2022-11-15T07:39:50.976Z,97618.56
2022-11-15T07:42:38.611Z,97619.38
2022-11-15T07:45:08.831Z,97620.19
2022-11-15T07:47:39.094Z,97622.81
2022-11-15T07:50:09.894Z,97617.59
2022-11-15T07:52:41.387Z,97624.44
2022-11-15T07:55:12.263Z,97630.88
2022-11-15T07:57:41.975Z,97628.88
2022-11-15T08:00:13.955Z,97626.84
2022-11-15T08:02:43.962Z,97623.06
2022-11-15T08:05:13.981Z,97623.69
2022-11-15T08:07:44.077Z,97624.28
2022-11-15T08:10:17.785Z,97623.31
2022-11-15T08:12:49.625Z,97616.09
2022-11-15T08:15:20.113Z,97614.91
2022-11-15T08:17:49.272Z,97615.50
2022-11-15T08:20:18.566Z,97609.28
2022-11-15T08:22:48.916Z,97609.88
2022-11-15T08:25:20.926Z,97608.88
2022-11-15T08:27:53.165Z,97600.88
2022-11-15T08:30:22.023Z,97604.06
2022-11-15T08:32:51.743Z,97607.31
2022-11-15T08:35:26.294Z,97597.66
2022-11-15T08:37:59.382Z,97588.81
2022-11-15T08:40:30.659Z,97588.41
2022-11-15T08:43:03.591Z,97584.81
2022-11-15T08:45:33.071Z,97585.22
2022-11-15T08:48:04.261Z,97578.78
2022-11-15T08:50:33.387Z,97578.59
2022-11-15T08:53:09.559Z,97566.75
2022-11-15T08:55:41.834Z,97569.16
2022-11-15T08:58:11.683Z,97565.31
2022-11-15T09:00:41.803Z,97569.16
2022-11-15T09:03:11.508Z,97567.97
2022-11-15T09:05:40.534Z,97571.19
2022-11-15T09:08:32.760Z,97569.16
2022-11-15T09:11:00.845Z,97572.19
2022-11-15T09:13:30.695Z,97570.38
2022-11-15T09:16:00.731Z,97569.19
2022-11-15T09:18:30.396Z,97580.84
2022-11-15T09:21:00.941Z,97578.06
2022-11-15T09:23:31.050Z,97568.81
2022-11-15T09:26:06.290Z,97569.63
2022-11-15T09:28:35.935Z,97576.44
2022-11-15T09:31:08.201Z,97580.09
2022-11-15T09:33:37.596Z,97579.69
2022-11-15T09:36:10.220Z,97572.03
2022-11-15T09:38:40.261Z,97574.44
2022-11-15T09:41:34.347Z,97566.38
2022-11-15T09:44:33.586Z,97557.13
2022-11-15T09:47:28.847Z,97553.09
2022-11-15T09:50:04.140Z,97551.69
2022-11-15T09:52:36.587Z,97556.34
2022-11-15T09:55:12.441Z,97553.09
2022-11-15T09:57:56.789Z,97542.22
2022-11-15T10:00:52.885Z,97542.22
2022-11-15T10:03:31.931Z,97529.34
2022-11-15T10:06:07.129Z,97523.69
2022-11-15T10:09:00.378Z,97518.03
2022-11-15T10:11:38.281Z,97515.22
2022-11-15T10:14:18.679Z,97501.72
2022-11-15T10:17:29.621Z,97501.13
2022-11-15T10:20:15.660Z,97500.72
2022-11-15T10:22:50.585Z,97503.50
2022-11-15T10:25:24.836Z,97496.69
2022-11-15T10:28:00.892Z,97482.56
2022-11-15T10:30:39.555Z,97481.38
2022-11-15T10:33:32.189Z,97473.69
2022-11-15T10:36:23.225Z,97473.88
2022-11-15T10:39:00.430Z,97469.81
2022-11-15T10:41:40.978Z,97454.88
2022-11-15T10:44:48.325Z,97450.03
2022-11-15T10:47:37.676Z,97450.03
2022-11-15T10:50:31.088Z,97443.75
2022-11-15T10:53:04.063Z,97441.31
2022-11-15T10:55:36.780Z,97440.09
2022-11-15T10:58:22.401Z,97438.09
2022-11-15T11:00:54.537Z,97428.56
2022-11-15T11:03:36.028Z,97423.91
2022-11-15T11:06:12.918Z,97408.56
2022-11-15T11:08:42.784Z,97398.69
2022-11-15T11:11:12.011Z,97393.59
2022-11-15T11:13:42.211Z,97387.94
2022-11-15T11:16:50.720Z,97392.97
2022-11-15T11:19:52.078Z,97391.09
2022-11-15T11:22:34.757Z,97386.25
2022-11-15T11:25:22.117Z,97375.31
2022-11-15T11:28:11.623Z,97374.88
2022-11-15T11:30:57.744Z,97379.69
2022-11-15T11:33:34.976Z,97374.84
2022-11-15T11:36:24.205Z,97366.75
2022-11-15T11:39:08.220Z,97367.94
2022-11-15T11:41:57.840Z,97367.50
2022-11-15T11:44:59.887Z,97361.41
2022-11-15T11:47:36.437Z,97359.78
2022-11-15T11:50:18.627Z,97354.91
2022-11-15T11:53:03.884Z,97352.22
2022-11-15T11:55:40.737Z,97354.19
2022-11-15T11:58:18.476Z,97345.88
2022-11-15T12:00:55.695Z,97337.56
2022-11-15T12:03:32.662Z,97330.88
2022-11-15T12:06:09.025Z,97330.69
2022-11-15T12:08:51.073Z,97324.38
2022-11-15T12:11:29.078Z,97315.06
2022-11-15T12:14:05.787Z,97309.81
2022-11-15T12:16:36.512Z,97313.59
2022-11-15T12:19:07.038Z,97299.69
2022-11-15T12:21:47.026Z,97295.03
2022-11-15T12:24:26.317Z,97290.94
2022-11-15T12:27:04.669Z,97288.31
2022-11-15T12:29:41.788Z,97277.16
2022-11-15T12:32:26.859Z,97277.38
2022-11-15T12:34:58.019Z,97277.16
2022-11-15T12:37:56.460Z,97263.22
2022-11-15T12:40:34.453Z,97264.03
2022-11-15T12:43:42.404Z,97261.19
2022-11-15T12:46:45.491Z,97266.81
2022-11-15T12:49:48.521Z,97259.94
2022-11-15T12:52:18.397Z,97250.59
2022-11-15T12:55:35.553Z,97253.81
2022-11-15T12:58:33.821Z,97251.00
2022-11-15T13:01:03.029Z,97239.69
2022-11-15T13:03:31.761Z,97232.16
2022-11-15T13:06:42.080Z,97236.97
2022-11-15T13:09:54.997Z,97232.31
2022-11-15T13:13:00.174Z,97236.88
2022-11-15T13:15:47.935Z,97221.38
2022-11-15T13:18:36.831Z,97223.75
2022-11-15T13:21:38.623Z,97223.75
2022-11-15T13:24:14.876Z,97213.84
2022-11-15T13:26:44.539Z,97212.78
2022-11-15T13:29:23.583Z,97203.91
2022-11-15T13:31:53.589Z,97203.44
2022-11-15T13:37:41.206Z,97190.47
2022-11-15T13:40:26.053Z,97184.75
2022-11-15T13:42:56.284Z,97179.50
2022-11-15T13:45:27.408Z,97173.00
2022-11-15T13:48:00.360Z,97169.56
2022-11-15T13:50:35.969Z,97165.69
2022-11-15T13:53:08.256Z,97168.09
2022-11-15T13:55:37.209Z,97154.75
2022-11-15T13:58:08.981Z,97154.16
2022-11-15T14:00:44.564Z,97145.03
2022-11-15T14:03:22.179Z,97142.16
2022-11-15T14:06:08.883Z,97145.03
2022-11-15T14:08:38.784Z,97138.53
2022-11-15T14:11:18.035Z,97133.03
2022-11-15T14:14:14.110Z,97125.59
2022-11-15T14:16:47.722Z,97120.34
2022-11-15T14:19:42.066Z,97114.53
2022-11-15T14:22:21.504Z,97110.91
2022-11-15T14:25:17.170Z,97120.34
2022-11-15T14:28:07.708Z,97109.63
2022-11-15T14:30:37.693Z,97110.44
2022-11-15T14:33:24.867Z,97115.09
2022-11-15T14:35:56.860Z,97113.53
2022-11-15T14:38:27.526Z,97110.31
2022-11-15T14:40:57.934Z,97101.88
2022-11-15T14:43:27.475Z,97092.16
2022-11-15T14:45:56.231Z,97096.38
2022-11-15T14:48:27.206Z,97083.94
2022-11-15T14:50:57.431Z,97086.56
2022-11-15T14:53:27.452Z,97083.34
2022-11-15T14:55:58.092Z,97091.47
2022-11-15T14:58:27.961Z,97079.13
2022-11-15T15:00:57.498Z,97077.75
2022-11-15T15:03:27.408Z,97087.47
2022-11-15T15:05:57.448Z,97081.66
2022-11-15T15:08:27.116Z,97076.06
2022-11-15T15:10:56.479Z,97068.97
2022-11-15T15:13:27.762Z,97070.25
2022-11-15T15:15:57.498Z,97072.06
2022-11-15T15:18:29.231Z,97065.00
2022-11-15T15:21:04.067Z,97064.19
2022-11-15T15:23:33.288Z,97062.56
2022-11-15T15:26:02.239Z,97050.47
2022-11-15T15:28:34.767Z,97052.53
2022-11-15T15:31:05.366Z,97045.69
2022-11-15T15:33:35.711Z,97049.78
2022-11-15T15:36:05.892Z,97050.25
2022-11-15T15:38:36.146Z,97047.63
2022-11-15T15:41:07.567Z,97049.09
2022-11-15T15:43:37.225Z,97042.69
2022-11-15T15:46:06.980Z,97043.13
2022-11-15T15:48:38.285Z,97042.56
2022-11-15T15:51:15.389Z,97041.31
2022-11-15T15:53:47.727Z,97052.22
2022-11-15T15:56:17.162Z,97040.59
2022-11-15T15:58:46.176Z,97040.47
2022-11-15T16:01:14.779Z,97040.94
2022-11-15T16:03:45.242Z,97025.41
2022-11-15T16:06:41.421Z,97032.91
2022-11-15T16:09:16.898Z,97025.97
2022-11-15T16:11:48.816Z,97025.84
2022-11-15T16:14:17.400Z,97025.59
2022-11-15T16:16:47.634Z,97021.63
2022-11-15T16:19:17.994Z,97022.88
2022-11-15T16:21:47.028Z,97024.91
2022-11-15T16:24:15.597Z,97026.16
2022-11-15T16:26:45.318Z,97028.78
2022-11-15T16:29:13.985Z,97020.34
2022-11-15T16:31:43.375Z,97029.22
2022-11-15T16:34:13.981Z,97029.09
2022-11-15T16:36:43.903Z,97023.03
2022-11-15T16:39:15.911Z,97019.50
2022-11-15T16:41:47.669Z,97019.28
2022-11-15T16:44:17.516Z,97018.50
2022-11-15T16:46:51.932Z,97016.88
2022-11-15T16:49:23.327Z,97014.47
2022-11-15T16:51:53.339Z,97018.34
2022-11-15T16:54:23.675Z,97007.06
2022-11-15T16:56:52.355Z,97010.03
2022-11-15T16:59:21.835Z,97010.28
2022-11-15T17:01:53.952Z,97003.41
2022-11-15T17:04:24.221Z,97002.41
2022-11-15T17:06:55.995Z,97001.00
2022-11-15T17:09:26.231Z,97003.88
2022-11-15T17:11:55.588Z,97007.28
2022-11-15T17:14:24.506Z,96996.56
2022-11-15T17:16:57.644Z,97002.25
2022-11-15T17:19:27.554Z,97002.50
2022-11-15T17:21:57.608Z,96989.41
2022-11-15T17:24:27.146Z,96992.22
2022-11-15T17:26:55.724Z,96988.59
2022-11-15T17:29:24.908Z,96993.47
2022-11-15T17:31:55.155Z,96990.28
2022-11-15T17:34:24.445Z,96984.47
2022-11-15T17:36:54.824Z,96983.44
2022-11-15T17:39:25.878Z,96984.47
2022-11-15T17:41:55.559Z,96979.78
2022-11-15T17:44:25.473Z,96985.03
2022-11-15T17:46:55.549Z,96980.03
2022-11-15T17:49:25.263Z,96979.66
2022-11-15T17:51:55.479Z,96976.25
2022-11-15T17:54:26.506Z,96971.81
2022-11-15T17:56:56.979Z,96971.00
2022-11-15T17:59:27.081Z,96972.25
2022-11-15T18:01:56.365Z,96978.72
2022-11-15T18:04:28.500Z,96974.53
2022-11-15T18:06:58.352Z,96972.72
2022-11-15T18:09:29.993Z,96968.47
2022-11-15T18:11:59.419Z,96965.06
2022-11-15T18:14:30.120Z,96965.50
2022-11-15T18:17:00.183Z,96968.34
2022-11-15T18:19:30.272Z,96958.31
2022-11-15T18:22:01.875Z,96963.09
2022-11-15T18:24:35.056Z,96952.84
2022-11-15T18:27:06.750Z,96948.63
2022-11-15T18:29:38.292Z,96953.88
2022-11-15T18:32:11.880Z,96951.25
2022-11-15T18:34:41.051Z,96953.06
2022-11-15T18:37:10.943Z,96942.59
2022-11-15T18:39:41.511Z,96945.44
2022-11-15T18:42:12.435Z,96941.78
2022-11-15T18:44:43.162Z,96931.53
2022-11-15T18:47:11.856Z,96939.59
2022-11-15T18:49:41.466Z,96935.41
2022-11-15T18:52:11.027Z,96931.19
2022-11-15T18:54:41.499Z,96936.19
2022-11-15T18:57:11.027Z,96927.31
2022-11-15T18:59:40.551Z,96919.34
2022-11-15T19:02:13.708Z,96926.59
2022-11-15T19:04:43.172Z,96924.78
2022-11-15T19:07:12.846Z,96922.38
2022-11-15T19:09:44.602Z,96916.94
2022-11-15T19:12:14.885Z,96919.75
2022-11-15T19:14:43.790Z,96909.88
2022-11-15T19:17:13.885Z,96904.03
2022-11-15T19:19:43.605Z,96907.69
2022-11-15T19:22:12.251Z,96904.50
2022-11-15T19:24:43.183Z,96899.50
2022-11-15T19:27:13.279Z,96900.72
2022-11-15T19:29:44.489Z,96899.34
2022-11-15T19:32:13.566Z,96897.97
2022-11-15T19:34:43.276Z,96890.94
2022-11-15T19:37:13.615Z,96889.09
2022-11-15T19:39:44.602Z,96885.69
2022-11-15T19:42:13.926Z,96882.13
2022-11-15T19:44:44.478Z,96881.91
2022-11-15T19:47:14.741Z,96880.53
2022-11-15T19:49:46.633Z,96874.50
2022-11-15T19:52:16.628Z,96876.88
2022-11-15T19:54:47.605Z,96871.09
2022-11-15T19:57:16.783Z,96871.50
2022-11-15T19:59:47.198Z,96870.69
2022-11-15T20:02:17.760Z,96872.50
2022-11-15T20:04:48.049Z,96868.88
2022-11-15T20:07:18.708Z,96869.91
2022-11-15T20:09:49.854Z,96865.47
2022-11-15T20:12:20.131Z,96868.28
2022-11-15T20:14:50.641Z,96862.28
2022-11-15T20:17:20.597Z,96867.72
2022-11-15T20:19:50.545Z,96861.69
2022-11-15T20:22:20.671Z,96864.31
2022-11-15T20:24:52.947Z,96860.88
2022-11-15T20:27:22.891Z,96856.09
2022-11-15T20:29:54.648Z,96858.50
2022-11-15T20:32:23.247Z,96856.09
2022-11-15T20:34:54.108Z,96842.00
2022-11-15T20:37:24.372Z,96845.63
2022-11-15T20:39:56.440Z,96848.25
2022-11-15T20:42:26.733Z,96849.25
2022-11-15T20:44:59.791Z,96838.78
2022-11-15T20:47:31.872Z,96847.69
2022-11-15T20:50:20.722Z,96830.34
2022-11-15T20:52:50.425Z,96838.44
2022-11-15T20:55:20.880Z,96838.66
2022-11-15T20:57:51.414Z,96828.75
2022-11-15T21:00:25.940Z,96829.78
2022-11-15T21:02:55.504Z,96822.94
2022-11-15T21:05:25.453Z,96821.34
2022-11-15T21:07:55.043Z,96820.34
2022-11-15T21:10:42.652Z,96816.72
2022-11-15T21:13:11.970Z,96818.53
2022-11-15T21:15:41.546Z,96822.16
2022-11-15T21:18:10.027Z,96818.53
2022-11-15T21:20:38.752Z,96822.94
2022-11-15T21:23:07.449Z,96816.72
2022-11-15T21:25:37.763Z,96816.72
2022-11-15T21:28:07.447Z,96818.28
2022-11-15T21:30:35.880Z,96806.00
2022-11-15T21:33:04.859Z,96808.97
2022-11-15T21:35:34.701Z,96802.94
2022-11-15T21:38:04.075Z,96806.94
2022-11-15T21:40:34.077Z,96804.31
2022-11-15T21:43:05.214Z,96793.84
2022-11-15T21:45:33.992Z,96789.16
2022-11-15T21:48:03.439Z,96792.81
2022-11-15T21:50:32.274Z,96783.94
2022-11-15T21:53:01.302Z,96783.13
2022-11-15T21:55:30.463Z,96777.91
2022-11-15T21:57:59.899Z,96781.53
2022-11-15T22:00:48.782Z,96791.78
2022-11-15T22:03:18.217Z,96778.69
2022-11-15T22:05:48.115Z,96774.47
2022-11-15T22:08:16.631Z,96776.28
2022-11-15T22:10:49.055Z,96774.72
2022-11-15T22:13:18.157Z,96770.50
2022-11-15T22:15:51.447Z,96770.69
2022-11-15T22:18:26.246Z,96767.06
2022-11-15T22:20:58.554Z,96768.88
2022-11-15T22:23:29.718Z,96755.78
2022-11-15T22:25:59.660Z,96762.28
2022-11-15T22:28:30.453Z,96758.66
2022-11-15T22:31:03.031Z,96753.41
2022-11-15T22:33:35.158Z,96747.13
2022-11-15T22:36:07.256Z,96748.41
2022-11-15T22:38:37.130Z,96744.97
2022-11-15T22:41:09.283Z,96747.59
2022-11-15T22:43:38.475Z,96743.97
2022-11-15T22:46:09.307Z,96746.56
2022-11-15T22:48:40.315Z,96742.94
2022-11-15T22:51:09.728Z,96745.56
2022-11-15T22:53:39.637Z,96737.72
2022-11-15T22:56:10.916Z,96739.75
2022-11-15T22:58:41.460Z,96734.03
2022-11-15T23:01:23.626Z,96733.03
2022-11-15T23:03:53.731Z,96732.03
2022-11-15T23:06:23.816Z,96729.63
2022-11-15T23:08:52.471Z,96727.59
2022-11-15T23:11:39.625Z,96725.19
2022-11-15T23:14:09.393Z,96725.19
2022-11-15T23:16:40.823Z,96716.31
2022-11-15T23:19:12.741Z,96717.13
2022-11-15T23:22:03.024Z,96711.06
2022-11-15T23:24:33.540Z,96716.31
2022-11-15T23:27:08.418Z,96708.47
2022-11-15T23:29:53.463Z,96708.47
2022-11-15T23:32:41.637Z,96705.84
2022-11-15T23:35:11.275Z,96702.63
2022-11-15T23:37:40.752Z,96708.47
2022-11-15T23:40:11.689Z,96711.28
2022-11-15T23:42:41.739Z,96712.88
2022-11-15T23:45:12.979Z,96712.09
2022-11-15T23:47:43.545Z,96716.31
2022-11-15T23:50:14.926Z,96714.69
2022-11-15T23:52:46.066Z,96709.94
2022-11-15T23:55:16.296Z,96705.25
2022-11-15T23:57:47.181Z,96700.00
